M I D A S
Marine Information and Data Acquisition System
Tripno 1586 of the Zeeleeuw from 2008-10-13 07:42:22 to 2008-10-13 14:03:36
Back to CruiseResearch ActivitiesStationsMapUnderway DataData graphs

EquipmentUnitsComment
TimeDGPSUTC
LatitudeDGPSDM.mWGS84
LongitudeDGPSDM.mWGS84
HeadingGyrodeg 
SOGDGPSknotsSpeed over ground
COGDGPSdegCourse over ground
DepthEcho soundermeters200 kHz
Missing or incorrect values are displayed as -999
Navigation data collected by the RV Zeeleeuw from 2008-10-13 07:42:22 to 2008-10-13 14:03:36
Time Latitude Longitude Heading SOG COG Depth
2008-10-13 07:44:30 51°13.768 2°55.694 132 5.59 312 -999
2008-10-13 07:46:30 51°13.922 2°55.656 199 4.7 17 -999
2008-10-13 07:48:30 51°14.001 2°55.559 309.6 5.29 314 -999
2008-10-13 07:50:30 51°14.246 2°55.275 327 9.4 325 -999
2008-10-13 07:52:30 51°14.423 2°54.822 297.6 10.5 294 -999
2008-10-13 07:54:30 51°14.314 2°54.196 243.5 12.59 243 -999
2008-10-13 07:56:30 51°14.114 2°53.595 242.8 12.8 243 -999
2008-10-13 07:58:30 51°13.899 2°53.003 239.4 12.9 240 -999
2008-10-13 08:00:30 51°13.697 2°52.393 242.5 13 242 -999
2008-10-13 08:02:30 51°13.494 2°51.784 242.4 13 242 -999
2008-10-13 08:04:30 51°13.29 2°51.173 242.9 13 243 -999
2008-10-13 08:06:30 51°13.094 2°50.555 244.4 13.09 244 -999
2008-10-13 08:08:30 51°12.905 2°49.932 244.6 13 245 -999
2008-10-13 08:10:30 51°12.717 2°49.31 244 13 244 -999
2008-10-13 08:12:30 51°12.532 2°48.692 244.4 12.9 244 -999
2008-10-13 08:14:30 51°12.347 2°48.073 244 13 245 -999
2008-10-13 08:16:30 51°12.166 2°47.447 243.8 13 245 -999
2008-10-13 08:18:30 51°11.994 2°46.819 244.4 13 245 -999
2008-10-13 08:20:30 51°11.818 2°46.195 245.5 12.9 247 -999
2008-10-13 08:22:30 51°11.697 2°45.551 257.6 12.69 258 -999
2008-10-13 08:24:30 51°11.624 2°44.891 261.3 12.69 261 -999
2008-10-13 08:26:30 51°11.553 2°44.236 260.1 12.5 260 -999
2008-10-13 08:28:30 51°11.477 2°43.589 260.5 12.4 261 -999
2008-10-13 08:30:30 51°11.405 2°42.944 261.3 12.3 259 -999
2008-10-13 08:32:30 51°11.293 2°42.315 255.4 12.3 252 -999
2008-10-13 08:34:30 51°11.121 2°41.723 241.5 12.4 243 -999
2008-10-13 08:36:30 51°10.944 2°41.133 244.8 12.3 245 -999
2008-10-13 08:38:30 51°10.766 2°40.545 244.5 12.3 245 -999
2008-10-13 08:40:30 51°10.578 2°39.969 242 12.19 242 -999
2008-10-13 08:42:30 51°10.398 2°39.387 242.6 12.3 244 -999
2008-10-13 08:44:30 51°10.23 2°38.794 246 12.3 248 -999
2008-10-13 08:46:30 51°10.066 2°38.189 245.3 12.4 247 -999
2008-10-13 08:48:30 51°9.896 2°37.596 245.9 12.3 247 -999
2008-10-13 08:50:30 51°9.729 2°37.004 245.4 12.19 247 -999
2008-10-13 08:52:30 51°9.559 2°36.427 245.4 12.09 246 -999
2008-10-13 08:54:30 51°9.396 2°35.838 244.6 12 246 -999
2008-10-13 08:56:30 51°9.217 2°35.275 241.9 11.9 243 -999
2008-10-13 08:58:30 51°9.064 2°34.763 242.8 10.3 245 -999
2008-10-13 09:00:30 51°8.99 2°34.513 243 4.7 243 -999
2008-10-13 09:02:30 51°8.913 2°34.318 238 4.29 241 -999
2008-10-13 09:04:30 51°8.874 2°34.23 245.4 0.1 76 -999
2008-10-13 09:06:30 51°8.889 2°34.255 295.6 0.69 46 -999
2008-10-13 09:08:30 51°8.911 2°34.285 311.3 0.9 43 -999
2008-10-13 09:10:30 51°8.934 2°34.319 305.6 1 41 -999
2008-10-13 09:12:30 51°8.96 2°34.348 293.6 1 42 -999
2008-10-13 09:14:30 51°8.817 2°34.238 200 7.09 197 -999
2008-10-13 09:16:30 51°8.791 2°34.182 262.8 0.59 309 -999
2008-10-13 09:18:30 51°8.814 2°34.181 271.6 0.59 8 -999
2008-10-13 09:20:30 51°8.836 2°34.201 264.1 0.8 37 -999
2008-10-13 09:22:30 51°8.859 2°34.236 263.1 1 44 -999
2008-10-13 09:24:30 51°8.886 2°34.281 267 1.3 47 -999
2008-10-13 09:26:30 51°8.917 2°34.335 272.8 1.39 48 -999
2008-10-13 09:28:30 51°8.949 2°34.397 281.5 1.6 50 -999
2008-10-13 09:30:30 51°8.982 2°34.466 291 1.6 53 -999
2008-10-13 09:32:30 51°8.959 2°34.406 231.1 3.7 220 -999
2008-10-13 09:34:30 51°8.89 2°34.202 249.8 1.69 263 -999
2008-10-13 09:36:30 51°8.926 2°34.207 287 1.3 17 -999
2008-10-13 09:38:30 51°8.963 2°34.241 284.5 1.39 32 -999
2008-10-13 09:40:30 51°8.999 2°34.289 280.6 1.5 41 -999
2008-10-13 09:42:30 51°9.034 2°34.345 280.6 1.5 43 -999
2008-10-13 09:44:30 51°9.072 2°34.379 279.5 1.19 11 -999
2008-10-13 09:46:30 51°9.101 2°34.36 264.5 0.9 328 -999
2008-10-13 09:48:30 51°9.112 2°34.336 248.6 0.5 293 -999
2008-10-13 09:50:30 51°9.107 2°34.321 233.8 0.4 221 -999
2008-10-13 09:52:30 51°9.086 2°34.322 218.5 0.8 173 -999
2008-10-13 09:54:30 51°9.04 2°34.35 199.5 1.8 161 -999
2008-10-13 09:56:30 51°8.961 2°34.28 228 3 227 -999
2008-10-13 09:58:30 51°8.911 2°34.136 237.9 3.1 240 -999
2008-10-13 10:00:30 51°8.861 2°33.99 238.1 3.1 243 -999
2008-10-13 10:02:30 51°8.814 2°33.848 238.1 3 242 -999
2008-10-13 10:04:30 51°8.768 2°33.707 238.5 3 243 -999
2008-10-13 10:06:30 51°8.721 2°33.565 238.5 3 243 -999
2008-10-13 10:08:30 51°8.676 2°33.425 238.1 3 243 -999
2008-10-13 10:10:30 51°8.631 2°33.284 238.3 3 245 -999
2008-10-13 10:12:30 51°8.607 2°33.139 253.1 2.89 269 -999
2008-10-13 10:14:30 51°8.641 2°32.983 273.5 3.39 299 -999
2008-10-13 10:16:30 51°8.749 2°32.917 323.1 3.39 356 -999
2008-10-13 10:18:30 51°8.83 2°32.936 319.3 2.2 11 -999
2008-10-13 10:20:30 51°8.882 2°32.966 296.6 1.5 25 -999
2008-10-13 10:22:30 51°8.986 2°33.082 40.6 5.5 52 -999
2008-10-13 10:24:30 51°8.917 2°33.238 169.3 3 137 -999
2008-10-13 10:26:30 51°8.863 2°33.309 187.1 1.89 141 -999
2008-10-13 10:28:30 51°8.825 2°33.347 207.4 1.1 150 -999
2008-10-13 10:30:30 51°8.791 2°33.389 200.1 1.39 139 -999
2008-10-13 10:32:30 51°8.769 2°33.448 207.6 1.1 107 -999
2008-10-13 10:34:30 51°8.779 2°33.517 210.4 1.39 72 -999
2008-10-13 10:36:30 51°8.8 2°33.602 201.6 1.8 67 -999
2008-10-13 10:38:30 51°8.829 2°33.696 197.5 2 62 -999
2008-10-13 10:40:30 51°8.859 2°33.788 200.3 2.1 59 -999
2008-10-13 10:42:30 51°8.789 2°33.823 193.6 3 166 -999
2008-10-13 10:44:30 51°8.683 2°33.794 205.9 3.39 190 -999
2008-10-13 10:46:30 51°8.589 2°33.797 201.6 2.1 177 -999
2008-10-13 10:48:30 51°8.561 2°33.783 226.3 0.8 210 -999
2008-10-13 10:50:30 51°8.502 2°33.72 218.4 2.89 205 -999
2008-10-13 10:52:30 51°8.388 2°33.645 213.9 3.79 206 -999
2008-10-13 10:54:30 51°8.29 2°33.564 213.9 2.89 208 -999
2008-10-13 10:56:30 51°8.289 2°33.525 252.3 0.69 312 -999
2008-10-13 10:58:30 51°8.319 2°33.528 264.8 1 11 -999
2008-10-13 11:00:30 51°8.28 2°33.546 184.8 2.5 153 -999
2008-10-13 11:02:30 51°8.157 2°33.564 194.5 3.89 180 -999
2008-10-13 11:04:30 51°8.045 2°33.489 215.9 3.6 212 -999
2008-10-13 11:06:30 51°7.947 2°33.37 219.3 3.79 220 -999
2008-10-13 11:08:30 51°7.928 2°33.28 248.9 1.1 283 -999
2008-10-13 11:10:30 51°7.942 2°33.243 246.1 0.8 293 -999
2008-10-13 11:12:30 51°7.926 2°33.233 209.5 0.69 174 -999
2008-10-13 11:14:30 51°7.897 2°33.226 214.6 0.9 204 -999
2008-10-13 11:16:30 51°7.891 2°33.229 215.5 0.2 101 -999
2008-10-13 11:18:30 51°7.905 2°33.251 224.1 0.69 43 -999
2008-10-13 11:20:30 51°7.931 2°33.282 237.5 1.1 36 -999
2008-10-13 11:22:30 51°7.96 2°33.306 245.3 1.19 32 -999
2008-10-13 11:24:30 51°7.884 2°33.199 216 4 214 -999
2008-10-13 11:26:30 51°7.862 2°33.184 227.8 0.1 317 -999
2008-10-13 11:28:30 51°7.882 2°33.196 244.1 0.8 25 -999
2008-10-13 11:30:30 51°7.914 2°33.223 253.1 1.1 29 -999
2008-10-13 11:32:30 51°7.949 2°33.262 261.8 1.3 36 -999
2008-10-13 11:34:30 51°7.986 2°33.309 271.3 1.5 39 -999
2008-10-13 11:36:30 51°8.002 2°33.29 244.5 1.19 266 -999
2008-10-13 11:38:30 51°7.926 2°33.231 199.5 3.1 187 -999
2008-10-13 11:40:30 51°7.859 2°33.189 219 1.8 217 -999
2008-10-13 11:42:30 51°7.861 2°33.111 258.5 1.8 286 -999
2008-10-13 11:44:30 51°7.905 2°33.099 295.1 1.5 2 -999
2008-10-13 11:46:30 51°7.95 2°33.118 296.5 1.39 19 -999
2008-10-13 11:48:30 51°7.995 2°33.145 297.8 1.39 30 -999
2008-10-13 11:50:30 51°8.209 2°33.179 11 8.69 17 -999
2008-10-13 11:52:30 51°8.52 2°33.303 7 9.69 15 -999
2008-10-13 11:54:30 51°8.777 2°33.417 7 7 18 -999
2008-10-13 11:56:30 51°8.965 2°33.447 344.6 4.79 2 -999
2008-10-13 11:58:30 51°9.049 2°33.463 323.1 2.2 12 -999
2008-10-13 13:00:30 51°11.451 2°42.922 72.9 13.3 72 -999
2008-10-13 13:02:30 51°11.553 2°43.607 78.7 13.19 78 -999
2008-10-13 13:04:30 51°11.643 2°44.295 79.4 13.3 78 -999
2008-10-13 13:06:30 51°11.734 2°44.984 79 13.3 79 -999
2008-10-13 13:08:30 51°11.836 2°45.669 77.5 13.19 76 -999
2008-10-13 13:10:30 51°11.969 2°46.337 72.2 13.19 72 -999
2008-10-13 13:12:30 51°12.086 2°47.01 77 13.19 76 -999
2008-10-13 13:14:30 51°12.261 2°47.655 65.7 13.3 65 -999
2008-10-13 13:16:30 51°12.436 2°48.294 67.5 13.19 67 -999
2008-10-13 13:18:30 51°12.6 2°48.935 69.4 13.19 69 -999
2008-10-13 13:20:30 51°12.78 2°49.568 64.2 13.09 63 -999
2008-10-13 13:22:30 51°12.99 2°50.18 62.6 13 62 -999
2008-10-13 13:24:30 51°13.213 2°50.619 43.3 8.3 43 -999
2008-10-13 13:26:30 51°13.339 2°50.848 50.1 5.9 49 -999
2008-10-13 13:28:30 51°13.474 2°51.039 42.2 4.7 45 -999
2008-10-13 13:30:30 51°13.481 2°51.086 9.3 0.8 74 -999
2008-10-13 13:32:30 51°13.492 2°51.137 18.8 1 69 -999
2008-10-13 13:34:30 51°13.509 2°51.192 30.6 1.19 61 -999
2008-10-13 13:36:30 51°13.533 2°51.249 32.2 1.39 53 -999
2008-10-13 13:38:30 51°13.562 2°51.307 26.5 1.39 51 -999
2008-10-13 13:40:30 51°13.594 2°51.362 22.8 1.39 45 -999
2008-10-13 13:42:30 51°13.627 2°51.414 22.8 1.39 44 -999
2008-10-13 13:44:30 51°13.668 2°51.482 24.6 1.6 40 -999
2008-10-13 13:46:30 51°13.677 2°51.637 116.5 2.2 96 -999
2008-10-13 13:48:30 51°13.674 2°51.746 109.2 2.1 89 -999
2008-10-13 13:50:30 51°13.689 2°51.859 84.7 2.2 76 -999
2008-10-13 13:52:30 51°13.727 2°51.996 70 3 64 -999
2008-10-13 13:54:30 51°13.89 2°52.521 64.5 12.5 65 -999
2008-10-13 13:56:30 51°14.081 2°53.111 63.7 12.5 63 -999
2008-10-13 13:58:30 51°14.252 2°53.712 67.9 12.4 69 -999
2008-10-13 14:00:30 51°14.359 2°54.27 73.4 8.59 69 -999
2008-10-13 14:02:30 51°14.377 2°54.882 90.7 12.09 91 -999